メインページ
METAR-TAF:

METAR-TAF

空港 :

ヘルシンキ・ヴァンター国際空港

ヘルシンキ, フィンランド

緯度: 60-19N, 経度: 024-58E, 海抜: 51m

現時点の気象観測

当レポートは12分前の23:50(UTC)に作成
変向風 2kt
気温 4°C
湿度 93%
気圧 1025 hPa
視程10km以上
高度1100ftの千切れ雲あり

METAR: EFHK 142350Z VRB02KT 9999 BKN011 04/03 Q1025 NOSIG

時間: 02:02 (00:02 UTC)

予報

当レポートは27分前の23:35(UTC)に作成
予報は15日の 00時(UTC)から 15日の 24時(UTC)まで有効
南西の風 5kt
視程10km以上
高度1100ftの千切れ雲あり
確率 30%
15日の 00時(UTC)から 15日の 02時(UTC)まで
高度900ftの千切れ雲あり
確率 40%
15日の 02時(UTC)から 15日の 18時(UTC)まで
高度1500ftの千切れ雲あり
15日の 20時(UTC)から 15日の 22時(UTC)まで徐々に
視程: 7000m
高度700ftの千切れ雲あり
確率 30%
15日の 22時(UTC)から 15日の 24時(UTC)まで
視程: 4000m
高度400ftの千切れ雲あり

TAF: EFHK 142335Z 1500/1524 22005KT 9999 BKN011 PROB30 1500/1502 BKN009 PROB40 1502/1518 BKN015 BECMG 1520/1522 7000 BKN007 PROB30 1522/1524 4000 BR BKN004

4,000以上の空港の気象観測と天気予報(METAR報とTAF報)

利用可能な観測所は地図上に黄色い丸と赤い丸で示す。

丸の上にカーソルを重ねると観測所名を参照できる。

次にクリックすると気象観測と天気予報を参照できる。

マップの切り替え:黒色「×」印の緑ボタンをクリックして拡大、「-」印の緑ボタンをクリックして縮小、緑色の三角印をクリックして隣りの地図に切り替え


METAR-TAF: